Notikewin, Canada
Current Conditions -  °F | °C
As of 12:00 PM on Tuesday 21 Oct 2014 (Local Time) from CYPE Reporting Station
Few Clouds Few Clouds  
Wind Chill: 43°   Ceiling: Unl
Heat Index: 46°   Visibility: 15mi
Dew Point: 39°   Wind: 7mph
Humidity: 76%   Direction: 220°SW
Pressure: 29.58"   Gusts: NA
Location:  56.97°N, 117.6°W
Report Text: CYPE 211800Z 22006KT 15SM FEW150 FEW250 08/04 A2958 RMK AC1CI1 AC TR CI TR SLP035
Loading
Personal Weather Stations






























Interactive Weather Map
Tropical Storm Tracking
New forecast layout! Learn more

10-Day Weather Forecast

Advertisements
Track Severe Weather on mobile